Time;durP1;ratioP1;P1;durP2;ratioP2;P2;SDS_P1;SDS_P2;PMS_P1;PMS_P2;Temp;Humidity;BMP_temperature;BMP_pressure;BME280_temperature;BME280_humidity;BME280_pressure;Samples;Min_cycle;Max_cycle;Signal;HPM_P1;HPM_P2
2023/08/31 00:02:04;;;;;;;3.00;1.67;;;;;;;;;;5074258;28;20359;-70
2023/08/31 00:04:29;;;;;;;6.50;2.10;;;;;;;;;;5074886;28;20356;-70
2023/08/31 00:06:56;;;;;;;3.05;1.90;;;;;;;;;;5062249;28;20029;-70
2023/08/31 00:09:22;;;;;;;5.75;2.17;;;;;;;;;;5077500;28;20032;-71
2023/08/31 00:11:47;;;;;;;5.75;2.38;;;;;;;;;;5083524;28;20058;-70
2023/08/31 00:14:12;;;;;;;3.43;2.10;;;;;;;;;;5073408;28;20032;-70
2023/08/31 00:16:37;;;;;;;3.55;2.30;;;;;;;;;;5072825;28;20290;-69
2023/08/31 00:19:03;;;;;;;2.63;1.60;;;;;;;;;;5072879;28;20055;-70
2023/08/31 00:21:30;;;;;;;3.35;1.92;;;;;;;;;;5072749;28;20032;-69
2023/08/31 00:23:55;;;;;;;3.10;1.70;;;;;;;;;;5072425;28;20467;-70
2023/08/31 00:26:20;;;;;;;6.28;2.10;;;;;;;;;;5072955;28;20140;-70
2023/08/31 00:28:46;;;;;;;2.83;1.73;;;;;;;;;;5073117;28;20550;-70
2023/08/31 00:31:11;;;;;;;3.20;1.75;;;;;;;;;;5073129;28;20367;-69
2023/08/31 00:33:39;;;;;;;4.28;2.08;;;;;;;;;;5075667;28;20141;-70
2023/08/31 00:36:04;;;;;;;3.47;2.33;;;;;;;;;;5092391;28;20031;-70
2023/08/31 00:38:30;;;;;;;2.70;1.70;;;;;;;;;;5088878;28;20021;-71
2023/08/31 00:40:56;;;;;;;3.55;2.17;;;;;;;;;;5072338;28;20429;-70
2023/08/31 00:43:21;;;;;;;3.13;2.30;;;;;;;;;;5073692;28;20036;-70
2023/08/31 00:45:48;;;;;;;4.00;2.70;;;;;;;;;;5072951;28;20074;-70
2023/08/31 00:48:14;;;;;;;3.90;2.28;;;;;;;;;;5072737;28;20078;-71
2023/08/31 00:50:40;;;;;;;5.03;2.30;;;;;;;;;;5073360;28;20013;-69
2023/08/31 00:53:06;;;;;;;5.95;2.40;;;;;;;;;;5071867;28;20036;-69
2023/08/31 00:55:31;;;;;;;3.92;2.22;;;;;;;;;;5072386;28;20035;-69
2023/08/31 00:57:58;;;;;;;5.20;2.15;;;;;;;;;;5072419;28;20072;-69
2023/08/31 01:00:28;;;;;;;3.17;2.03;;;;;;;;;;5077030;28;20048;-70
2023/08/31 01:03:03;;;;;;;3.17;2.20;;;;;;;;;;5075283;28;20434;-68
2023/08/31 01:05:37;;;;;;;2.97;2.05;;;;;;;;;;5072363;28;20082;-71
2023/08/31 01:08:14;;;;;;;4.07;1.75;;;;;;;;;;5071866;28;20028;-71
2023/08/31 01:10:49;;;;;;;3.15;2.03;;;;;;;;;;5086248;28;20024;-70
2023/08/31 01:13:14;;;;;;;;;;;;;;;;;;5072405;28;20024;-71
2023/08/31 01:15:41;;;;;;;3.60;1.85;;;;;;;;;;5071687;28;19995;-71
2023/08/31 01:18:07;;;;;;;3.00;1.77;;;;;;;;;;5071930;28;20138;-71
2023/08/31 01:20:33;;;;;;;5.90;2.30;;;;;;;;;;5067892;28;20099;-70
2023/08/31 01:23:08;;;;;;;3.38;2.15;;;;;;;;;;5046906;28;20031;-71
2023/08/31 01:25:34;;;;;;;4.70;2.65;;;;;;;;;;5067694;28;20053;-70
2023/08/31 01:27:59;;;;;;;4.47;2.28;;;;;;;;;;5072358;28;20111;-70
2023/08/31 01:30:25;;;;;;;3.45;2.47;;;;;;;;;;5078231;28;20077;-70
2023/08/31 01:32:50;;;;;;;5.10;2.63;;;;;;;;;;5072704;28;20037;-70
2023/08/31 01:35:19;;;;;;;4.45;2.33;;;;;;;;;;5072707;28;20024;-70
2023/08/31 01:38:04;;;;;;;4.53;2.47;;;;;;;;;;5081940;28;20036;-70
2023/08/31 01:40:38;;;;;;;4.25;2.90;;;;;;;;;;5071019;28;20028;-70
2023/08/31 01:43:05;;;;;;;4.43;2.65;;;;;;;;;;5072547;28;20475;-70
2023/08/31 01:45:31;;;;;;;7.15;3.45;;;;;;;;;;5072960;28;20422;-71
2023/08/31 01:47:57;;;;;;;4.68;2.45;;;;;;;;;;5072756;28;20033;-70
2023/08/31 01:50:22;;;;;;;5.53;2.58;;;;;;;;;;5072337;28;20074;-70
2023/08/31 01:52:48;;;;;;;4.65;2.90;;;;;;;;;;5072768;28;20020;-70
2023/08/31 01:55:16;;;;;;;6.80;3.10;;;;;;;;;;5074554;28;20027;-69
2023/08/31 01:57:41;;;;;;;4.55;2.40;;;;;;;;;;5080478;28;20122;-69
2023/08/31 02:00:07;;;;;;;4.75;2.83;;;;;;;;;;5075284;28;20112;-69
2023/08/31 02:02:33;;;;;;;3.90;2.70;;;;;;;;;;5071374;28;20039;-69
2023/08/31 02:05:01;;;;;;;4.85;2.80;;;;;;;;;;5079768;28;20035;-69
2023/08/31 02:07:26;;;;;;;5.32;2.55;;;;;;;;;;5062810;28;20055;-70
2023/08/31 02:09:51;;;;;;;4.45;3.17;;;;;;;;;;5090170;28;20526;-70
2023/08/31 02:12:17;;;;;;;4.05;2.60;;;;;;;;;;5081334;28;20073;-70
2023/08/31 02:14:42;;;;;;;5.13;2.87;;;;;;;;;;5091303;28;20040;-71
2023/08/31 02:17:07;;;;;;;3.90;2.40;;;;;;;;;;5084704;28;20348;-71
2023/08/31 02:19:32;;;;;;;6.07;3.30;;;;;;;;;;5086097;28;20024;-71
2023/08/31 02:21:58;;;;;;;4.77;3.03;;;;;;;;;;5084455;28;20029;-70
2023/08/31 02:24:23;;;;;;;8.23;3.50;;;;;;;;;;5088324;28;20290;-71
2023/08/31 02:26:49;;;;;;;4.43;3.08;;;;;;;;;;5078666;28;20024;-71
2023/08/31 02:29:14;;;;;;;6.70;3.85;;;;;;;;;;5075198;28;20512;-70
2023/08/31 02:31:39;;;;;;;4.35;3.50;;;;;;;;;;5075368;28;20028;-70
2023/08/31 02:34:04;;;;;;;6.13;3.90;;;;;;;;;;5074533;28;20056;-70
2023/08/31 02:36:30;;;;;;;5.07;3.97;;;;;;;;;;5082996;28;20067;-70
2023/08/31 02:38:56;;;;;;;6.43;4.07;;;;;;;;;;5094242;28;20024;-70
2023/08/31 02:41:21;;;;;;;5.43;3.47;;;;;;;;;;5094208;28;20024;-70
2023/08/31 02:43:47;;;;;;;5.38;3.95;;;;;;;;;;5091759;28;20514;-70
2023/08/31 02:46:12;;;;;;;4.70;3.17;;;;;;;;;;5090375;28;20119;-69
2023/08/31 02:48:38;;;;;;;6.90;4.03;;;;;;;;;;5093805;28;20051;-70
2023/08/31 02:51:03;;;;;;;6.55;4.32;;;;;;;;;;5093920;28;20610;-71
2023/08/31 02:53:29;;;;;;;5.70;4.10;;;;;;;;;;5093519;28;20074;-71
2023/08/31 02:55:54;;;;;;;5.35;3.95;;;;;;;;;;5093843;28;20845;-71
2023/08/31 02:58:20;;;;;;;7.50;4.20;;;;;;;;;;5093386;28;20074;-71
2023/08/31 03:00:47;;;;;;;7.47;4.65;;;;;;;;;;5084160;28;20032;-70
2023/08/31 03:03:13;;;;;;;5.38;3.80;;;;;;;;;;5077518;28;20021;-72
2023/08/31 03:05:38;;;;;;;6.00;3.95;;;;;;;;;;5075303;28;20515;-72
2023/08/31 03:08:03;;;;;;;4.55;3.65;;;;;;;;;;5077605;28;20108;-72
2023/08/31 03:10:28;;;;;;;8.95;4.45;;;;;;;;;;5073375;28;20066;-70
2023/08/31 03:12:54;;;;;;;7.00;4.75;;;;;;;;;;5061941;28;20114;-70
2023/08/31 03:15:19;;;;;;;5.73;4.30;;;;;;;;;;5082065;28;20032;-70
2023/08/31 03:17:44;;;;;;;11.35;4.80;;;;;;;;;;5091140;28;20290;-70
2023/08/31 03:20:10;;;;;;;6.10;4.72;;;;;;;;;;5082449;28;20054;-70
2023/08/31 03:22:35;;;;;;;8.95;5.40;;;;;;;;;;5073645;28;20020;-70
2023/08/31 03:25:00;;;;;;;9.30;5.72;;;;;;;;;;5073592;28;20025;-69
2023/08/31 03:27:25;;;;;;;7.28;5.25;;;;;;;;;;5074291;28;20364;-70
2023/08/31 03:29:51;;;;;;;6.72;5.40;;;;;;;;;;5073991;28;20031;-70
2023/08/31 03:32:16;;;;;;;6.78;5.18;;;;;;;;;;5073809;28;20024;-70
2023/08/31 03:34:41;;;;;;;6.40;5.80;;;;;;;;;;5073812;28;20032;-70
2023/08/31 03:37:06;;;;;;;5.70;5.00;;;;;;;;;;5085947;28;20389;-70
2023/08/31 03:39:31;;;;;;;7.10;5.50;;;;;;;;;;5073665;28;20027;-73
2023/08/31 03:41:57;;;;;;;8.17;6.07;;;;;;;;;;5036242;28;21219;-73
2023/08/31 03:44:22;;;;;;;8.07;5.80;;;;;;;;;;5033666;28;20751;-73
2023/08/31 03:46:47;;;;;;;9.63;5.65;;;;;;;;;;5034939;28;20046;-73
2023/08/31 03:49:13;;;;;;;9.70;6.30;;;;;;;;;;5060550;28;20027;-73
2023/08/31 03:51:38;;;;;;;9.40;5.97;;;;;;;;;;5085065;28;20048;-73
2023/08/31 03:54:03;;;;;;;9.98;6.57;;;;;;;;;;5085712;28;20421;-73
2023/08/31 03:56:28;;;;;;;7.40;6.53;;;;;;;;;;5078691;28;20060;-73
2023/08/31 03:58:54;;;;;;;12.15;6.38;;;;;;;;;;5079871;28;20037;-73
2023/08/31 04:01:19;;;;;;;9.88;6.38;;;;;;;;;;5078537;28;20016;-70
2023/08/31 04:03:44;;;;;;;13.18;6.90;;;;;;;;;;5090253;28;20475;-70
2023/08/31 04:06:12;;;;;;;7.53;6.57;;;;;;;;;;5079768;28;20020;-73
2023/08/31 04:08:37;;;;;;;10.35;6.65;;;;;;;;;;5087031;28;20016;-71
2023/08/31 04:11:03;;;;;;;9.10;6.50;;;;;;;;;;5086803;28;20475;-70
2023/08/31 04:13:28;;;;;;;9.05;6.90;;;;;;;;;;5091766;28;20050;-69
2023/08/31 04:15:53;;;;;;;10.55;7.43;;;;;;;;;;5077843;28;20012;-69
2023/08/31 04:18:19;;;;;;;9.18;6.53;;;;;;;;;;5073288;28;20032;-69
2023/08/31 04:20:51;;;;;;;8.88;6.43;;;;;;;;;;5077228;28;20055;-70
2023/08/31 04:23:16;;;;;;;8.57;5.88;;;;;;;;;;5088385;28;20032;-71
2023/08/31 04:25:41;;;;;;;9.18;7.30;;;;;;;;;;5084434;28;20051;-72
2023/08/31 04:28:07;;;;;;;9.90;7.35;;;;;;;;;;5077616;28;20027;-72
2023/08/31 04:30:32;;;;;;;9.98;6.72;;;;;;;;;;5084231;28;20028;-72
2023/08/31 04:32:58;;;;;;;16.45;6.93;;;;;;;;;;5083036;28;20522;-74
2023/08/31 04:35:24;;;;;;;13.35;6.75;;;;;;;;;;5085879;28;20035;-73
2023/08/31 04:37:49;;;;;;;11.43;7.18;;;;;;;;;;5070313;28;20028;-73
2023/08/31 04:40:14;;;;;;;9.85;7.07;;;;;;;;;;5082736;28;20038;-71
2023/08/31 04:42:40;;;;;;;10.88;7.90;;;;;;;;;;5077357;28;20158;-71
2023/08/31 04:45:05;;;;;;;10.60;7.32;;;;;;;;;;5084580;28;20081;-70
2023/08/31 04:47:30;;;;;;;11.38;7.43;;;;;;;;;;5080086;28;20419;-71
2023/08/31 04:49:57;;;;;;;9.77;7.35;;;;;;;;;;5078008;28;20382;-70
2023/08/31 04:52:22;;;;;;;11.27;7.47;;;;;;;;;;5078434;28;20020;-70
2023/08/31 04:54:47;;;;;;;8.27;6.70;;;;;;;;;;5082102;28;20131;-70
2023/08/31 04:57:12;;;;;;;10.13;7.87;;;;;;;;;;5079649;28;20359;-70
2023/08/31 04:59:38;;;;;;;13.80;7.57;;;;;;;;;;5084625;28;20479;-70
2023/08/31 05:02:03;;;;;;;10.00;8.55;;;;;;;;;;5073520;28;20299;-70
2023/08/31 05:04:28;;;;;;;13.52;7.72;;;;;;;;;;5082737;28;20024;-70
2023/08/31 05:06:54;;;;;;;9.30;6.97;;;;;;;;;;5082059;28;20071;-71
2023/08/31 05:09:19;;;;;;;12.93;8.18;;;;;;;;;;5072263;28;20032;-70
2023/08/31 05:11:44;;;;;;;12.20;6.90;;;;;;;;;;5081373;28;20081;-70
2023/08/31 05:14:09;;;;;;;12.43;8.23;;;;;;;;;;5091845;28;20103;-70
2023/08/31 05:16:35;;;;;;;12.50;7.88;;;;;;;;;;5082851;28;20020;-70
2023/08/31 05:19:00;;;;;;;10.43;7.40;;;;;;;;;;5087214;28;20099;-70
2023/08/31 05:21:25;;;;;;;9.55;7.43;;;;;;;;;;5090231;28;20301;-70
2023/08/31 05:23:50;;;;;;;13.30;8.18;;;;;;;;;;5084818;28;20070;-71
2023/08/31 05:26:16;;;;;;;12.32;8.48;;;;;;;;;;5082971;28;20024;-71
2023/08/31 05:28:41;;;;;;;16.30;8.68;;;;;;;;;;5084053;28;20375;-70
2023/08/31 05:31:06;;;;;;;10.45;8.40;;;;;;;;;;5083903;28;20027;-69
2023/08/31 05:33:33;;;;;;;11.77;8.55;;;;;;;;;;5090040;28;20059;-69
2023/08/31 05:36:00;;;;;;;14.48;8.55;;;;;;;;;;5082402;28;20020;-70
2023/08/31 05:38:25;;;;;;;12.20;8.60;;;;;;;;;;5089344;28;20024;-70
2023/08/31 05:40:50;;;;;;;13.10;8.20;;;;;;;;;;5071709;28;20035;-70
2023/08/31 05:43:16;;;;;;;12.00;8.10;;;;;;;;;;5072877;28;20293;-70
2023/08/31 05:45:41;;;;;;;10.40;7.65;;;;;;;;;;5079402;28;20056;-70
2023/08/31 05:48:07;;;;;;;12.77;8.00;;;;;;;;;;5090389;28;20020;-71
2023/08/31 05:50:32;;;;;;;16.52;8.90;;;;;;;;;;5091307;28;20054;-71
2023/08/31 05:52:57;;;;;;;14.32;9.02;;;;;;;;;;5089150;28;20016;-71
2023/08/31 05:55:22;;;;;;;11.18;8.18;;;;;;;;;;5091249;28;20024;-71
2023/08/31 05:57:48;;;;;;;10.30;7.75;;;;;;;;;;5088558;28;20475;-71
2023/08/31 06:00:13;;;;;;;15.13;8.15;;;;;;;;;;5090781;28;20024;-70
2023/08/31 06:02:39;;;;;;;12.88;8.30;;;;;;;;;;5090203;28;20024;-70
2023/08/31 06:05:05;;;;;;;12.85;7.70;;;;;;;;;;5091003;28;20024;-71
2023/08/31 06:07:30;;;;;;;14.05;7.45;;;;;;;;;;5080557;28;20536;-71
2023/08/31 06:09:56;;;;;;;10.88;7.22;;;;;;;;;;5071148;28;20024;-71
2023/08/31 06:12:21;;;;;;;8.35;6.32;;;;;;;;;;5084976;28;20039;-70
2023/08/31 06:14:46;;;;;;;10.68;6.07;;;;;;;;;;5091322;28;20363;-70
2023/08/31 06:17:13;;;;;;;7.75;5.03;;;;;;;;;;5090665;28;20356;-71
2023/08/31 06:19:38;;;;;;;8.13;5.43;;;;;;;;;;5090973;28;20375;-71
2023/08/31 06:22:03;;;;;;;9.27;5.40;;;;;;;;;;5077366;28;20035;-71
2023/08/31 06:24:29;;;;;;;11.65;5.15;;;;;;;;;;5090965;28;20016;-71
2023/08/31 06:26:56;;;;;;;10.48;5.10;;;;;;;;;;5090977;28;20047;-71
2023/08/31 06:29:21;;;;;;;9.63;5.50;;;;;;;;;;5090937;28;20024;-70
2023/08/31 06:31:46;;;;;;;11.05;4.15;;;;;;;;;;5090791;28;20449;-71
2023/08/31 06:34:12;;;;;;;9.47;5.73;;;;;;;;;;5090937;28;20024;-71
2023/08/31 06:36:37;;;;;;;6.18;3.80;;;;;;;;;;5090339;28;20293;-71
2023/08/31 06:39:04;;;;;;;7.10;4.60;;;;;;;;;;5090533;28;20038;-70
2023/08/31 06:41:30;;;;;;;6.75;4.13;;;;;;;;;;5079440;28;20022;-70
2023/08/31 06:43:55;;;;;;;6.85;4.70;;;;;;;;;;5076287;28;20110;-72
2023/08/31 06:46:21;;;;;;;9.18;4.20;;;;;;;;;;5081556;28;20016;-71
2023/08/31 06:48:46;;;;;;;7.05;4.13;;;;;;;;;;5079452;28;20054;-70
2023/08/31 06:51:11;;;;;;;6.35;4.13;;;;;;;;;;5085820;28;20024;-70
2023/08/31 06:53:37;;;;;;;6.03;3.97;;;;;;;;;;5087904;28;20058;-71
2023/08/31 06:56:02;;;;;;;6.18;3.58;;;;;;;;;;5088786;28;20042;-70
2023/08/31 06:58:27;;;;;;;7.40;3.45;;;;;;;;;;5087752;28;20055;-70
2023/08/31 07:00:52;;;;;;;7.43;3.70;;;;;;;;;;5080234;28;20569;-70
2023/08/31 07:03:18;;;;;;;15.03;3.90;;;;;;;;;;5075265;28;20903;-70
2023/08/31 07:05:45;;;;;;;6.53;3.17;;;;;;;;;;5076107;28;20658;-70
2023/08/31 07:08:11;;;;;;;6.70;3.28;;;;;;;;;;5081832;28;20036;-70
2023/08/31 07:10:36;;;;;;;5.82;3.78;;;;;;;;;;5091862;28;20394;-70
2023/08/31 07:13:03;;;;;;;6.97;3.65;;;;;;;;;;5086951;28;20020;-70
2023/08/31 07:15:28;;;;;;;5.55;3.53;;;;;;;;;;5076079;28;20109;-70
2023/08/31 07:17:54;;;;;;;9.00;3.70;;;;;;;;;;5082231;28;20466;-71
2023/08/31 07:20:19;;;;;;;5.28;3.45;;;;;;;;;;5093748;28;20036;-70
2023/08/31 07:22:45;;;;;;;7.53;3.60;;;;;;;;;;5091614;28;20032;-68
2023/08/31 07:25:10;;;;;;;7.82;3.25;;;;;;;;;;5089067;28;20482;-71
2023/08/31 07:27:35;;;;;;;7.50;3.30;;;;;;;;;;5093376;28;20076;-70
2023/08/31 07:30:00;;;;;;;10.52;3.88;;;;;;;;;;5081923;28;20479;-69
2023/08/31 07:32:26;;;;;;;6.65;3.28;;;;;;;;;;5087102;28;20068;-71
2023/08/31 07:34:51;;;;;;;6.25;3.67;;;;;;;;;;5083382;28;20494;-70
2023/08/31 07:37:16;;;;;;;9.30;3.63;;;;;;;;;;5075850;28;20024;-71
2023/08/31 07:39:41;;;;;;;8.20;3.28;;;;;;;;;;5075477;28;20024;-70
2023/08/31 07:42:07;;;;;;;11.13;3.53;;;;;;;;;;5084422;28;20165;-70
2023/08/31 07:44:32;;;;;;;5.85;3.42;;;;;;;;;;5080477;28;20281;-70
2023/08/31 07:46:57;;;;;;;7.60;3.47;;;;;;;;;;5072377;28;20025;-70
2023/08/31 07:49:22;;;;;;;7.60;2.75;;;;;;;;;;5088902;28;20024;-70
2023/08/31 07:51:48;;;;;;;13.33;3.80;;;;;;;;;;5080517;28;20107;-70
2023/08/31 07:54:20;;;;;;;6.10;3.08;;;;;;;;;;5085083;28;20760;-70
2023/08/31 07:56:45;;;;;;;6.93;2.78;;;;;;;;;;5088541;28;20032;-69
2023/08/31 07:59:10;;;;;;;6.85;3.90;;;;;;;;;;5083412;28;20489;-70
2023/08/31 08:01:36;;;;;;;7.57;2.88;;;;;;;;;;5081664;28;20020;-71
2023/08/31 08:04:01;;;;;;;6.85;3.10;;;;;;;;;;5080700;28;20103;-71
2023/08/31 08:06:26;;;;;;;7.32;3.08;;;;;;;;;;5088519;28;20063;-71
2023/08/31 08:08:51;;;;;;;13.17;3.00;;;;;;;;;;5079653;28;20043;-70
2023/08/31 08:11:16;;;;;;;6.80;2.70;;;;;;;;;;5078589;28;20290;-71
2023/08/31 08:13:42;;;;;;;5.53;2.80;;;;;;;;;;5084127;28;20278;-70
2023/08/31 08:16:08;;;;;;;4.80;2.65;;;;;;;;;;5084612;28;20810;-70
2023/08/31 08:18:34;;;;;;;6.55;3.03;;;;;;;;;;5087861;28;20538;-71
2023/08/31 08:20:59;;;;;;;5.30;2.87;;;;;;;;;;5073073;28;20139;-71
2023/08/31 08:23:24;;;;;;;5.07;2.72;;;;;;;;;;5072433;28;20765;-72
2023/08/31 08:25:49;;;;;;;5.63;2.53;;;;;;;;;;5080975;28;20024;-70
2023/08/31 08:28:15;;;;;;;4.28;2.38;;;;;;;;;;5071569;28;20094;-72
2023/08/31 08:30:40;;;;;;;7.13;2.85;;;;;;;;;;5084545;28;20024;-71
2023/08/31 08:33:05;;;;;;;7.50;2.70;;;;;;;;;;5080156;28;20464;-71
2023/08/31 08:35:30;;;;;;;5.57;2.72;;;;;;;;;;5088594;28;20353;-71
2023/08/31 08:37:56;;;;;;;10.73;2.78;;;;;;;;;;5081229;28;20146;-69
2023/08/31 08:40:21;;;;;;;6.93;3.20;;;;;;;;;;5087396;28;20030;-69
2023/08/31 08:42:47;;;;;;;8.43;2.83;;;;;;;;;;5085423;28;20024;-70
2023/08/31 08:45:15;;;;;;;4.43;2.70;;;;;;;;;;5075257;28;20036;-70
2023/08/31 08:47:42;;;;;;;4.60;3.03;;;;;;;;;;5074340;28;20028;-71
2023/08/31 08:50:07;;;;;;;7.55;3.63;;;;;;;;;;5087500;28;20107;-71
2023/08/31 08:52:32;;;;;;;7.57;2.80;;;;;;;;;;5087736;28;20099;-71
2023/08/31 08:54:59;;;;;;;7.80;3.70;;;;;;;;;;5087064;28;20024;-69
2023/08/31 08:57:24;;;;;;;5.68;2.95;;;;;;;;;;5070488;28;20040;-70
2023/08/31 08:59:49;;;;;;;9.00;3.00;;;;;;;;;;5077887;28;20024;-71
2023/08/31 09:02:15;;;;;;;6.80;2.97;;;;;;;;;;5082267;28;20270;-70
2023/08/31 09:04:40;;;;;;;7.20;2.45;;;;;;;;;;5082349;28;20479;-71
2023/08/31 09:07:06;;;;;;;9.75;3.50;;;;;;;;;;5074470;28;20021;-70
2023/08/31 09:09:32;;;;;;;13.07;3.28;;;;;;;;;;5076107;28;20056;-70
2023/08/31 09:12:05;;;;;;;5.90;2.90;;;;;;;;;;5075821;28;20059;-71
2023/08/31 09:14:31;;;;;;;8.85;3.35;;;;;;;;;;5073032;28;20036;-70
2023/08/31 09:16:56;;;;;;;6.40;3.47;;;;;;;;;;5072000;28;20036;-69
2023/08/31 09:19:22;;;;;;;6.63;3.33;;;;;;;;;;5074220;28;20060;-70
2023/08/31 09:21:48;;;;;;;6.13;2.95;;;;;;;;;;5073600;28;20267;-73
2023/08/31 09:24:13;;;;;;;5.53;2.83;;;;;;;;;;5071884;28;20475;-70
2023/08/31 09:26:49;;;;;;;7.57;3.50;;;;;;;;;;5071937;28;20017;-70
2023/08/31 09:29:15;;;;;;;5.15;3.03;;;;;;;;;;5072346;28;20274;-70
2023/08/31 09:31:44;;;;;;;7.57;3.25;;;;;;;;;;5072258;28;20040;-70
2023/08/31 09:34:09;;;;;;;7.07;3.20;;;;;;;;;;5072120;28;20028;-70
2023/08/31 09:36:36;;;;;;;5.75;3.15;;;;;;;;;;5071437;28;20490;-70
2023/08/31 09:39:01;;;;;;;9.25;3.40;;;;;;;;;;5077535;28;20524;-71
2023/08/31 09:41:27;;;;;;;8.23;2.72;;;;;;;;;;5071890;28;20020;-71
2023/08/31 09:43:52;;;;;;;6.45;3.17;;;;;;;;;;5024010;28;20186;-71
2023/08/31 09:46:17;;;;;;;9.82;3.50;;;;;;;;;;5046957;28;20020;-70
2023/08/31 09:48:43;;;;;;;5.20;2.67;;;;;;;;;;5035900;28;20820;-71
2023/08/31 09:51:10;;;;;;;7.10;2.90;;;;;;;;;;5043849;28;20089;-72
2023/08/31 09:53:36;;;;;;;6.20;2.50;;;;;;;;;;5080157;28;20035;-71
2023/08/31 09:56:02;;;;;;;7.75;2.50;;;;;;;;;;5081302;28;20024;-71
2023/08/31 09:58:28;;;;;;;11.70;2.53;;;;;;;;;;5075044;28;20021;-71
2023/08/31 10:00:54;;;;;;;7.55;2.83;;;;;;;;;;5080817;28;20032;-71
2023/08/31 10:03:20;;;;;;;7.88;2.88;;;;;;;;;;5075442;28;20028;-71
2023/08/31 10:05:46;;;;;;;6.13;3.28;;;;;;;;;;5077264;28;20036;-70
2023/08/31 10:08:12;;;;;;;5.07;2.80;;;;;;;;;;5072801;28;20055;-71
2023/08/31 10:10:37;;;;;;;8.90;2.40;;;;;;;;;;5087582;28;20028;-70
2023/08/31 10:13:04;;;;;;;5.75;2.58;;;;;;;;;;5069976;28;20031;-71
2023/08/31 10:15:32;;;;;;;3.33;1.98;;;;;;;;;;5080556;28;20688;-70
2023/08/31 10:17:59;;;;;;;10.50;2.83;;;;;;;;;;5079103;28;20024;-71
2023/08/31 10:20:28;;;;;;;12.80;3.45;;;;;;;;;;5087192;28;20020;-71
2023/08/31 10:23:04;;;;;;;6.90;2.88;;;;;;;;;;5071741;28;20044;-70
2023/08/31 10:25:47;;;;;;;6.45;2.47;;;;;;;;;;5080497;28;20024;-70
2023/08/31 10:28:19;;;;;;;5.17;2.57;;;;;;;;;;5075710;28;20027;-71
2023/08/31 10:31:01;;;;;;;5.18;2.30;;;;;;;;;;5082550;28;20058;-70
2023/08/31 10:33:26;;;;;;;5.07;2.13;;;;;;;;;;5080352;28;20459;-71
2023/08/31 10:35:52;;;;;;;8.60;2.33;;;;;;;;;;5080449;28;20119;-71
2023/08/31 10:38:28;;;;;;;4.75;2.05;;;;;;;;;;5079403;28;20028;-72
2023/08/31 10:41:00;;;;;;;4.22;1.70;;;;;;;;;;5078213;28;20035;-71
2023/08/31 10:43:25;;;;;;;5.57;2.55;;;;;;;;;;5078156;28;20355;-71
2023/08/31 10:45:50;;;;;;;5.27;2.50;;;;;;;;;;5076859;28;20031;-70
2023/08/31 10:48:17;;;;;;;4.35;1.92;;;;;;;;;;5077594;28;20663;-71
2023/08/31 10:50:44;;;;;;;4.88;2.08;;;;;;;;;;5075318;28;20415;-72
2023/08/31 10:53:09;;;;;;;4.68;2.50;;;;;;;;;;5077144;28;20103;-70
2023/08/31 10:55:49;;;;;;;4.20;2.13;;;;;;;;;;5082626;28;20111;-72
2023/08/31 10:58:14;;;;;;;5.22;1.98;;;;;;;;;;5076495;28;20032;-70
2023/08/31 11:00:46;;;;;;;7.70;2.40;;;;;;;;;;5091130;28;20065;-71
2023/08/31 11:03:12;;;;;;;7.28;1.95;;;;;;;;;;5075960;28;20016;-71
2023/08/31 11:05:50;;;;;;;7.00;2.92;;;;;;;;;;5080778;28;20028;-70
2023/08/31 11:08:15;;;;;;;8.48;2.63;;;;;;;;;;5088084;28;20032;-70
2023/08/31 11:10:45;;;;;;;4.87;2.40;;;;;;;;;;5086546;28;20020;-69
2023/08/31 11:13:15;;;;;;;6.03;2.13;;;;;;;;;;5092838;28;20262;-71
2023/08/31 11:15:45;;;;;;;5.47;2.38;;;;;;;;;;5091432;28;20016;-71
2023/08/31 11:18:10;;;;;;;5.35;2.05;;;;;;;;;;5072238;28;20020;-71
2023/08/31 11:20:36;;;;;;;3.95;2.08;;;;;;;;;;5078432;28;20069;-71
2023/08/31 11:23:02;;;;;;;4.57;1.83;;;;;;;;;;5090603;28;20085;-71
2023/08/31 11:25:30;;;;;;;10.18;2.05;;;;;;;;;;5084990;28;20020;-70
2023/08/31 11:27:56;;;;;;;6.68;1.30;;;;;;;;;;5082747;28;20026;-71
2023/08/31 11:30:22;;;;;;;5.47;1.50;;;;;;;;;;5085079;28;20030;-71
2023/08/31 11:32:48;;;;;;;3.38;1.67;;;;;;;;;;5083559;28;20494;-70
2023/08/31 11:35:15;;;;;;;2.72;1.15;;;;;;;;;;5078259;28;20028;-70
2023/08/31 11:37:41;;;;;;;3.53;1.50;;;;;;;;;;5064329;28;20033;-69
2023/08/31 11:40:06;;;;;;;6.03;1.42;;;;;;;;;;5085097;28;20124;-71
2023/08/31 11:42:32;;;;;;;3.50;1.55;;;;;;;;;;5085325;28;20025;-70
2023/08/31 11:44:58;;;;;;;2.38;1.13;;;;;;;;;;5075359;28;20035;-71
2023/08/31 11:47:24;;;;;;;2.80;1.35;;;;;;;;;;5087698;28;20020;-69
2023/08/31 11:49:50;;;;;;;5.57;0.98;;;;;;;;;;5086062;28;20048;-71
2023/08/31 11:52:15;;;;;;;4.82;1.38;;;;;;;;;;5086391;28;20054;-72
2023/08/31 11:54:41;;;;;;;2.53;1.20;;;;;;;;;;5079992;28;20036;-71
2023/08/31 11:57:08;;;;;;;2.35;1.30;;;;;;;;;;5085206;28;20423;-70
2023/08/31 11:59:34;;;;;;;5.65;1.50;;;;;;;;;;5077177;28;20039;-70
2023/08/31 12:01:59;;;;;;;3.20;1.50;;;;;;;;;;5091905;28;20024;-71
2023/08/31 12:04:27;;;;;;;2.03;0.90;;;;;;;;;;5083447;28;20024;-71
2023/08/31 12:07:00;;;;;;;4.25;1.55;;;;;;;;;;5075696;28;20279;-71
2023/08/31 12:09:27;;;;;;;2.10;0.98;;;;;;;;;;5075849;28;20017;-70
2023/08/31 12:11:52;;;;;;;5.13;1.35;;;;;;;;;;5080941;28;20016;-71
2023/08/31 12:14:22;;;;;;;2.70;0.85;;;;;;;;;;5069976;28;20032;-71
2023/08/31 12:16:48;;;;;;;4.20;1.23;;;;;;;;;;5040205;28;20039;-71
2023/08/31 12:19:13;;;;;;;3.25;1.50;;;;;;;;;;5034392;28;20328;-73
2023/08/31 12:21:39;;;;;;;4.72;1.52;;;;;;;;;;5037435;28;20020;-71
2023/08/31 12:24:05;;;;;;;3.08;1.40;;;;;;;;;;5038379;28;20024;-71
2023/08/31 12:26:31;;;;;;;7.47;2.20;;;;;;;;;;5044332;28;20035;-69
2023/08/31 12:28:56;;;;;;;3.20;1.33;;;;;;;;;;5037756;28;20056;-69
2023/08/31 12:31:24;;;;;;;5.00;1.30;;;;;;;;;;5040323;28;20024;-69
2023/08/31 12:33:50;;;;;;;6.47;2.08;;;;;;;;;;5074665;28;20324;-71
2023/08/31 12:36:15;;;;;;;5.13;1.93;;;;;;;;;;5088500;28;20015;-71
2023/08/31 12:38:41;;;;;;;6.78;2.42;;;;;;;;;;5081700;28;20290;-71
2023/08/31 12:41:06;;;;;;;3.60;1.70;;;;;;;;;;5076179;28;20052;-71
2023/08/31 12:43:31;;;;;;;5.07;1.60;;;;;;;;;;5087367;28;20500;-69
2023/08/31 12:45:57;;;;;;;3.87;1.63;;;;;;;;;;5076273;28;20056;-69
2023/08/31 12:48:22;;;;;;;3.80;1.52;;;;;;;;;;5086367;28;20285;-70
2023/08/31 12:50:48;;;;;;;4.28;1.55;;;;;;;;;;5081651;28;20028;-70
2023/08/31 12:53:13;;;;;;;4.97;2.10;;;;;;;;;;5082631;28;20423;-70
2023/08/31 12:55:39;;;;;;;4.32;1.95;;;;;;;;;;5077205;28;20099;-70
2023/08/31 12:58:04;;;;;;;12.13;2.05;;;;;;;;;;5078365;28;20034;-70
2023/08/31 13:00:29;;;;;;;3.70;1.50;;;;;;;;;;5077310;28;20470;-70
2023/08/31 13:02:54;;;;;;;4.13;2.37;;;;;;;;;;5078411;28;20320;-70
2023/08/31 13:05:20;;;;;;;3.67;1.60;;;;;;;;;;5076815;28;20263;-70
2023/08/31 13:07:45;;;;;;;4.78;1.60;;;;;;;;;;5076377;28;20027;-71
2023/08/31 13:10:11;;;;;;;5.38;2.38;;;;;;;;;;5072282;28;20029;-71
2023/08/31 13:12:37;;;;;;;3.25;1.70;;;;;;;;;;5072696;28;20040;-70
2023/08/31 13:15:02;;;;;;;3.67;1.25;;;;;;;;;;5081123;28;20082;-70
2023/08/31 13:17:28;;;;;;;3.92;1.50;;;;;;;;;;5091163;28;20051;-70
2023/08/31 13:19:54;;;;;;;3.47;1.40;;;;;;;;;;5092190;28;20070;-71
2023/08/31 13:22:19;;;;;;;4.25;1.70;;;;;;;;;;5091913;28;20028;-70
2023/08/31 13:24:45;;;;;;;5.68;1.77;;;;;;;;;;5092027;28;20031;-70
2023/08/31 13:27:10;;;;;;;4.53;1.90;;;;;;;;;;5089156;28;20078;-70
2023/08/31 13:29:35;;;;;;;3.53;1.33;;;;;;;;;;5071787;28;20112;-70
2023/08/31 13:32:01;;;;;;;3.10;1.40;;;;;;;;;;5074433;28;20028;-70
2023/08/31 13:34:26;;;;;;;5.37;1.37;;;;;;;;;;5082906;28;20815;-70
2023/08/31 13:36:51;;;;;;;4.32;1.70;;;;;;;;;;5072352;28;20325;-70
2023/08/31 13:39:16;;;;;;;3.60;1.30;;;;;;;;;;5071891;28;20082;-69
2023/08/31 13:41:42;;;;;;;5.53;1.73;;;;;;;;;;5072124;28;20060;-70
2023/08/31 13:44:07;;;;;;;3.17;1.70;;;;;;;;;;5072471;28;20278;-70
2023/08/31 13:46:32;;;;;;;4.83;1.60;;;;;;;;;;5071997;28;20335;-70
2023/08/31 13:48:57;;;;;;;7.00;2.20;;;;;;;;;;5071549;28;20619;-69
2023/08/31 13:51:23;;;;;;;5.57;1.60;;;;;;;;;;5073561;28;20275;-70
2023/08/31 13:53:48;;;;;;;6.33;2.10;;;;;;;;;;5083650;28;20052;-72
2023/08/31 13:56:13;;;;;;;3.63;1.60;;;;;;;;;;5072687;28;20275;-70
2023/08/31 13:58:38;;;;;;;6.90;1.63;;;;;;;;;;5072537;28;20772;-70
2023/08/31 14:01:04;;;;;;;3.28;1.40;;;;;;;;;;5074214;28;20033;-70
2023/08/31 14:03:30;;;;;;;6.00;1.90;;;;;;;;;;5075618;28;20386;-70
2023/08/31 14:05:55;;;;;;;4.45;1.80;;;;;;;;;;5076945;28;20103;-71
2023/08/31 14:08:20;;;;;;;4.80;1.97;;;;;;;;;;5075247;28;20036;-70
2023/08/31 14:10:45;;;;;;;4.32;1.65;;;;;;;;;;5075344;28;20263;-70
2023/08/31 14:13:11;;;;;;;6.97;1.63;;;;;;;;;;5087406;28;20426;-70
2023/08/31 14:15:36;;;;;;;3.42;1.42;;;;;;;;;;5074710;28;20603;-71
2023/08/31 14:18:02;;;;;;;4.45;1.67;;;;;;;;;;5074799;28;20029;-70
2023/08/31 14:20:27;;;;;;;2.70;1.48;;;;;;;;;;5074688;28;20471;-70
2023/08/31 14:22:52;;;;;;;2.78;1.27;;;;;;;;;;5074719;28;20024;-70
2023/08/31 14:25:18;;;;;;;4.07;1.53;;;;;;;;;;5075467;28;20020;-70
2023/08/31 14:27:43;;;;;;;4.13;1.73;;;;;;;;;;5074762;28;20760;-70
2023/08/31 14:30:08;;;;;;;7.57;1.90;;;;;;;;;;5075718;28;20278;-71
2023/08/31 14:32:34;;;;;;;3.22;1.98;;;;;;;;;;5075732;28;20270;-71
2023/08/31 14:34:59;;;;;;;7.28;2.15;;;;;;;;;;5076794;28;20039;-71